sensor_id;sensor_type;location;lat;lon;timestamp;pressure;altitude;pressure_sealevel;temperature;humidity
16481;BME280;44634;54.110;12.138;2023-09-18T00:00:03;101292.53;;;21.77;100.00
16481;BME280;44634;54.110;12.138;2023-09-18T00:02:35;101292.25;;;22.00;100.00
16481;BME280;44634;54.110;12.138;2023-09-18T00:05:03;101277.00;;;21.79;100.00
16481;BME280;44634;54.110;12.138;2023-09-18T00:07:32;101284.22;;;21.44;100.00
16481;BME280;44634;54.110;12.138;2023-09-18T00:10:00;101313.66;;;21.52;100.00
16481;BME280;44634;54.110;12.138;2023-09-18T00:12:28;101342.94;;;21.40;100.00
16481;BME280;44634;54.110;12.138;2023-09-18T00:14:59;101303.59;;;21.95;100.00
16481;BME280;44634;54.110;12.138;2023-09-18T00:17:27;101256.09;;;21.81;100.00
16481;BME280;44634;54.110;12.138;2023-09-18T00:19:56;101252.34;;;22.10;100.00
16481;BME280;44634;54.110;12.138;2023-09-18T00:22:29;101236.59;;;22.07;100.00
16481;BME280;44634;54.110;12.138;2023-09-18T00:24:58;101220.94;;;22.37;100.00
16481;BME280;44634;54.110;12.138;2023-09-18T00:27:26;101235.91;;;21.63;100.00
16481;BME280;44634;54.110;12.138;2023-09-18T00:29:54;101275.00;;;21.87;100.00
16481;BME280;44634;54.110;12.138;2023-09-18T00:32:24;101241.28;;;21.98;100.00
16481;BME280;44634;54.110;12.138;2023-09-18T00:34:53;101260.06;;;21.85;100.00
16481;BME280;44634;54.110;12.138;2023-09-18T00:37:21;101239.34;;;22.26;100.00
16481;BME280;44634;54.110;12.138;2023-09-18T00:39:49;101218.59;;;21.73;100.00
16481;BME280;44634;54.110;12.138;2023-09-18T00:42:17;101220.22;;;22.08;100.00
16481;BME280;44634;54.110;12.138;2023-09-18T00:44:46;101232.28;;;21.84;100.00
16481;BME280;44634;54.110;12.138;2023-09-18T00:47:14;101232.25;;;21.71;100.00
16481;BME280;44634;54.110;12.138;2023-09-18T00:49:45;101255.69;;;21.84;100.00
16481;BME280;44634;54.110;12.138;2023-09-18T00:52:13;101267.53;;;21.55;100.00
16481;BME280;44634;54.110;12.138;2023-09-18T00:54:42;101245.09;;;21.76;100.00
16481;BME280;44634;54.110;12.138;2023-09-18T00:57:13;101253.81;;;21.78;100.00
16481;BME280;44634;54.110;12.138;2023-09-18T00:59:42;101212.97;;;22.09;100.00
16481;BME280;44634;54.110;12.138;2023-09-18T01:02:11;101216.75;;;22.21;100.00
16481;BME280;44634;54.110;12.138;2023-09-18T01:04:40;101173.19;;;22.11;100.00
16481;BME280;44634;54.110;12.138;2023-09-18T01:07:12;101159.16;;;22.15;100.00
16481;BME280;44634;54.110;12.138;2023-09-18T01:09:40;101172.34;;;22.04;100.00
16481;BME280;44634;54.110;12.138;2023-09-18T01:12:11;101151.31;;;22.34;100.00
16481;BME280;44634;54.110;12.138;2023-09-18T01:14:44;101129.28;;;22.10;100.00
16481;BME280;44634;54.110;12.138;2023-09-18T01:17:18;101142.13;;;22.08;100.00
16481;BME280;44634;54.110;12.138;2023-09-18T01:19:47;101171.03;;;21.86;100.00
16481;BME280;44634;54.110;12.138;2023-09-18T01:22:17;101162.06;;;22.14;100.00
16481;BME280;44634;54.110;12.138;2023-09-18T01:24:47;101141.41;;;21.86;100.00
16481;BME280;44634;54.110;12.138;2023-09-18T01:27:17;101193.47;;;21.59;100.00
16481;BME280;44634;54.110;12.138;2023-09-18T01:29:46;101182.38;;;21.75;100.00
16481;BME280;44634;54.110;12.138;2023-09-18T01:32:15;101187.06;;;21.66;100.00
16481;BME280;44634;54.110;12.138;2023-09-18T01:34:45;101182.59;;;21.80;100.00
16481;BME280;44634;54.110;12.138;2023-09-18T01:37:14;101186.44;;;21.64;100.00
16481;BME280;44634;54.110;12.138;2023-09-18T01:39:43;101188.22;;;21.85;100.00
16481;BME280;44634;54.110;12.138;2023-09-18T01:42:13;101129.91;;;22.12;100.00
16481;BME280;44634;54.110;12.138;2023-09-18T01:44:42;101080.72;;;21.77;100.00
16481;BME280;44634;54.110;12.138;2023-09-18T01:47:11;101064.00;;;22.02;100.00
16481;BME280;44634;54.110;12.138;2023-09-18T01:49:40;101087.25;;;22.16;100.00
16481;BME280;44634;54.110;12.138;2023-09-18T01:52:09;101078.31;;;22.09;100.00
16481;BME280;44634;54.110;12.138;2023-09-18T01:54:38;101081.16;;;21.94;100.00
16481;BME280;44634;54.110;12.138;2023-09-18T01:57:06;101046.66;;;22.31;100.00
16481;BME280;44634;54.110;12.138;2023-09-18T01:59:36;101068.13;;;21.97;100.00
16481;BME280;44634;54.110;12.138;2023-09-18T02:02:05;101056.16;;;22.26;100.00
16481;BME280;44634;54.110;12.138;2023-09-18T02:04:41;101048.41;;;21.71;100.00
16481;BME280;44634;54.110;12.138;2023-09-18T02:07:29;101060.63;;;21.80;100.00
16481;BME280;44634;54.110;12.138;2023-09-18T02:09:58;101044.25;;;21.81;100.00
16481;BME280;44634;54.110;12.138;2023-09-18T02:12:27;101038.75;;;22.09;100.00
16481;BME280;44634;54.110;12.138;2023-09-18T02:14:57;101022.81;;;22.14;100.00
16481;BME280;44634;54.110;12.138;2023-09-18T02:17:30;101028.31;;;21.80;100.00
16481;BME280;44634;54.110;12.138;2023-09-18T02:19:59;101003.75;;;22.16;100.00
16481;BME280;44634;54.110;12.138;2023-09-18T02:22:31;100982.00;;;22.31;100.00
16481;BME280;44634;54.110;12.138;2023-09-18T02:24:59;100986.56;;;22.17;100.00
16481;BME280;44634;54.110;12.138;2023-09-18T02:27:27;100985.75;;;22.16;100.00
16481;BME280;44634;54.110;12.138;2023-09-18T02:29:57;100978.47;;;22.10;100.00
16481;BME280;44634;54.110;12.138;2023-09-18T02:32:25;100956.50;;;22.26;100.00
16481;BME280;44634;54.110;12.138;2023-09-18T02:34:54;100943.22;;;22.38;100.00
16481;BME280;44634;54.110;12.138;2023-09-18T02:37:22;100951.06;;;21.67;100.00
16481;BME280;44634;54.110;12.138;2023-09-18T02:39:50;100956.91;;;21.90;100.00
16481;BME280;44634;54.110;12.138;2023-09-18T02:42:18;100956.91;;;21.90;100.00
16481;BME280;44634;54.110;12.138;2023-09-18T02:44:47;100925.00;;;22.34;100.00
16481;BME280;44634;54.110;12.138;2023-09-18T02:47:16;100902.22;;;21.77;100.00
16481;BME280;44634;54.110;12.138;2023-09-18T02:49:44;100912.16;;;21.69;100.00
16481;BME280;44634;54.110;12.138;2023-09-18T02:52:12;100920.03;;;21.78;100.00
16481;BME280;44634;54.110;12.138;2023-09-18T02:54:40;100903.44;;;21.54;100.00
16481;BME280;44634;54.110;12.138;2023-09-18T02:57:08;100910.94;;;21.85;100.00
16481;BME280;44634;54.110;12.138;2023-09-18T02:59:36;100915.06;;;21.88;100.00
16481;BME280;44634;54.110;12.138;2023-09-18T03:02:05;100892.09;;;21.85;100.00
16481;BME280;44634;54.110;12.138;2023-09-18T03:04:34;100912.78;;;21.91;100.00
16481;BME280;44634;54.110;12.138;2023-09-18T03:07:03;100905.75;;;21.64;100.00
16481;BME280;44634;54.110;12.138;2023-09-18T03:09:31;100929.66;;;21.26;100.00
16481;BME280;44634;54.110;12.138;2023-09-18T03:11:59;100924.13;;;21.54;100.00
16481;BME280;44634;54.110;12.138;2023-09-18T03:14:27;100919.19;;;21.64;100.00
16481;BME280;44634;54.110;12.138;2023-09-18T03:16:55;100948.78;;;21.57;100.00
16481;BME280;44634;54.110;12.138;2023-09-18T03:19:23;100912.78;;;21.58;100.00
16481;BME280;44634;54.110;12.138;2023-09-18T03:21:55;100921.56;;;21.19;100.00
16481;BME280;44634;54.110;12.138;2023-09-18T03:24:22;100936.56;;;21.55;100.00
16481;BME280;44634;54.110;12.138;2023-09-18T03:26:50;100933.22;;;21.33;100.00
16481;BME280;44634;54.110;12.138;2023-09-18T03:29:18;100906.16;;;21.81;100.00
16481;BME280;44634;54.110;12.138;2023-09-18T03:31:46;100891.25;;;21.45;100.00
16481;BME280;44634;54.110;12.138;2023-09-18T03:34:14;100898.44;;;21.38;100.00
16481;BME280;44634;54.110;12.138;2023-09-18T03:36:42;100917.31;;;21.51;100.00
16481;BME280;44634;54.110;12.138;2023-09-18T03:39:11;100930.16;;;21.43;100.00
16481;BME280;44634;54.110;12.138;2023-09-18T03:41:39;100911.28;;;21.36;100.00
16481;BME280;44634;54.110;12.138;2023-09-18T03:44:07;100922.09;;;20.95;100.00
16481;BME280;44634;54.110;12.138;2023-09-18T03:46:36;100910.66;;;21.34;100.00
16481;BME280;44634;54.110;12.138;2023-09-18T03:49:04;100964.25;;;20.88;100.00
16481;BME280;44634;54.110;12.138;2023-09-18T03:51:32;100970.91;;;20.57;100.00
16481;BME280;44634;54.110;12.138;2023-09-18T03:54:00;101018.19;;;20.86;100.00
16481;BME280;44634;54.110;12.138;2023-09-18T03:56:29;101001.91;;;20.94;100.00
16481;BME280;44634;54.110;12.138;2023-09-18T03:58:57;100946.25;;;21.36;100.00
16481;BME280;44634;54.110;12.138;2023-09-18T04:01:27;100900.47;;;21.23;100.00
16481;BME280;44634;54.110;12.138;2023-09-18T04:03:56;100898.41;;;21.25;100.00
16481;BME280;44634;54.110;12.138;2023-09-18T04:06:35;100901.75;;;21.33;100.00
16481;BME280;44634;54.110;12.138;2023-09-18T04:09:03;100890.72;;;21.22;100.00
16481;BME280;44634;54.110;12.138;2023-09-18T04:11:33;100875.88;;;21.26;100.00
16481;BME280;44634;54.110;12.138;2023-09-18T04:14:01;100860.38;;;21.28;100.00
16481;BME280;44634;54.110;12.138;2023-09-18T04:16:29;100861.22;;;21.28;100.00
16481;BME280;44634;54.110;12.138;2023-09-18T04:19:02;100840.94;;;21.52;100.00
16481;BME280;44634;54.110;12.138;2023-09-18T04:21:29;100825.22;;;21.43;100.00
16481;BME280;44634;54.110;12.138;2023-09-18T04:23:57;100797.06;;;21.38;100.00
16481;BME280;44634;54.110;12.138;2023-09-18T04:26:27;100853.06;;;21.02;100.00
16481;BME280;44634;54.110;12.138;2023-09-18T04:28:59;100877.75;;;20.71;100.00
16481;BME280;44634;54.110;12.138;2023-09-18T04:31:27;100877.16;;;20.82;100.00
16481;BME280;44634;54.110;12.138;2023-09-18T04:33:55;100888.72;;;20.76;100.00
16481;BME280;44634;54.110;12.138;2023-09-18T04:36:24;100885.28;;;20.89;100.00
16481;BME280;44634;54.110;12.138;2023-09-18T04:38:52;100876.22;;;21.09;100.00
16481;BME280;44634;54.110;12.138;2023-09-18T04:41:20;100872.03;;;20.94;100.00
16481;BME280;44634;54.110;12.138;2023-09-18T04:43:49;100860.09;;;21.03;100.00
16481;BME280;44634;54.110;12.138;2023-09-18T04:46:18;100905.66;;;20.70;100.00
16481;BME280;44634;54.110;12.138;2023-09-18T04:48:46;100919.19;;;20.48;100.00
16481;BME280;44634;54.110;12.138;2023-09-18T04:51:16;100880.75;;;21.02;100.00
16481;BME280;44634;54.110;12.138;2023-09-18T04:53:44;100908.28;;;20.57;100.00
16481;BME280;44634;54.110;12.138;2023-09-18T04:56:12;100881.97;;;20.87;100.00
16481;BME280;44634;54.110;12.138;2023-09-18T04:58:40;100867.91;;;20.85;100.00
16481;BME280;44634;54.110;12.138;2023-09-18T05:01:08;100837.81;;;20.61;100.00
16481;BME280;44634;54.110;12.138;2023-09-18T05:03:39;100857.28;;;20.70;100.00
16481;BME280;44634;54.110;12.138;2023-09-18T05:06:09;100868.13;;;20.48;100.00
16481;BME280;44634;54.110;12.138;2023-09-18T05:08:38;100885.06;;;20.42;100.00
16481;BME280;44634;54.110;12.138;2023-09-18T05:11:07;100889.72;;;20.34;100.00
16481;BME280;44634;54.110;12.138;2023-09-18T05:13:37;100889.59;;;20.83;100.00
16481;BME280;44634;54.110;12.138;2023-09-18T05:16:05;100888.78;;;20.48;100.00
16481;BME280;44634;54.110;12.138;2023-09-18T05:18:32;100890.44;;;20.84;100.00
16481;BME280;44634;54.110;12.138;2023-09-18T05:21:02;100865.03;;;20.45;100.00
16481;BME280;44634;54.110;12.138;2023-09-18T05:23:31;100904.16;;;20.33;100.00
16481;BME280;44634;54.110;12.138;2023-09-18T05:26:00;100883.94;;;20.37;100.00
16481;BME280;44634;54.110;12.138;2023-09-18T05:28:30;100898.50;;;20.42;100.00
16481;BME280;44634;54.110;12.138;2023-09-18T05:30:58;100876.88;;;20.64;100.00
16481;BME280;44634;54.110;12.138;2023-09-18T05:33:26;100882.81;;;20.53;100.00
16481;BME280;44634;54.110;12.138;2023-09-18T05:35:55;100856.44;;;20.63;100.00
16481;BME280;44634;54.110;12.138;2023-09-18T05:38:24;100855.84;;;20.74;100.00
16481;BME280;44634;54.110;12.138;2023-09-18T05:40:52;100838.16;;;20.45;100.00
16481;BME280;44634;54.110;12.138;2023-09-18T05:43:21;100845.00;;;20.47;100.00
16481;BME280;44634;54.110;12.138;2023-09-18T05:45:49;100851.81;;;20.50;100.00
16481;BME280;44634;54.110;12.138;2023-09-18T05:48:19;100867.94;;;20.22;100.00
16481;BME280;44634;54.110;12.138;2023-09-18T05:50:47;100846.84;;;20.47;100.00
16481;BME280;44634;54.110;12.138;2023-09-18T05:53:15;100839.53;;;20.82;100.00
16481;BME280;44634;54.110;12.138;2023-09-18T05:55:45;100824.44;;;20.81;100.00
16481;BME280;44634;54.110;12.138;2023-09-18T05:58:13;100791.81;;;20.84;100.00
16481;BME280;44634;54.110;12.138;2023-09-18T06:00:41;100795.28;;;20.78;100.00
16481;BME280;44634;54.110;12.138;2023-09-18T06:03:09;100767.22;;;20.94;100.00
16481;BME280;44634;54.110;12.138;2023-09-18T06:05:39;100790.41;;;20.40;100.00
16481;BME280;44634;54.110;12.138;2023-09-18T06:08:07;100791.34;;;20.67;100.00
16481;BME280;44634;54.110;12.138;2023-09-18T06:10:35;100769.03;;;20.80;100.00
16481;BME280;44634;54.110;12.138;2023-09-18T06:13:05;100740.34;;;21.20;100.00
16481;BME280;44634;54.110;12.138;2023-09-18T06:15:33;100721.28;;;20.75;100.00
16481;BME280;44634;54.110;12.138;2023-09-18T06:18:02;100713.25;;;21.02;100.00
16481;BME280;44634;54.110;12.138;2023-09-18T06:20:31;100688.00;;;21.23;100.00
16481;BME280;44634;54.110;12.138;2023-09-18T06:22:59;100666.94;;;21.13;100.00
16481;BME280;44634;54.110;12.138;2023-09-18T06:25:26;100663.81;;;21.36;100.00
16481;BME280;44634;54.110;12.138;2023-09-18T06:27:54;100626.69;;;21.71;100.00
16481;BME280;44634;54.110;12.138;2023-09-18T06:30:23;100634.66;;;21.33;100.00
16481;BME280;44634;54.110;12.138;2023-09-18T06:32:51;100598.34;;;21.62;100.00
16481;BME280;44634;54.110;12.138;2023-09-18T06:35:20;100562.34;;;21.63;100.00
16481;BME280;44634;54.110;12.138;2023-09-18T06:37:48;100540.44;;;21.53;100.00
16481;BME280;44634;54.110;12.138;2023-09-18T06:40:16;100510.16;;;21.71;100.00
16481;BME280;44634;54.110;12.138;2023-09-18T06:42:44;100513.75;;;21.51;100.00
16481;BME280;44634;54.110;12.138;2023-09-18T06:45:11;100484.41;;;21.81;100.00
16481;BME280;44634;54.110;12.138;2023-09-18T06:47:41;100448.03;;;21.72;100.00
16481;BME280;44634;54.110;12.138;2023-09-18T06:50:09;100421.13;;;21.72;100.00
16481;BME280;44634;54.110;12.138;2023-09-18T06:52:39;100410.88;;;22.12;100.00
16481;BME280;44634;54.110;12.138;2023-09-18T06:55:08;100389.13;;;21.89;100.00
16481;BME280;44634;54.110;12.138;2023-09-18T06:57:36;100361.53;;;21.93;100.00
16481;BME280;44634;54.110;12.138;2023-09-18T07:00:04;100369.97;;;21.97;100.00
16481;BME280;44634;54.110;12.138;2023-09-18T07:02:32;100357.13;;;21.99;100.00
16481;BME280;44634;54.110;12.138;2023-09-18T07:05:02;100312.22;;;22.36;100.00
16481;BME280;44634;54.110;12.138;2023-09-18T07:07:31;100283.66;;;22.35;100.00
16481;BME280;44634;54.110;12.138;2023-09-18T07:09:59;100286.34;;;22.35;100.00
16481;BME280;44634;54.110;12.138;2023-09-18T07:12:31;100272.88;;;22.17;100.00
16481;BME280;44634;54.110;12.138;2023-09-18T07:15:00;100241.91;;;22.74;100.00
16481;BME280;44634;54.110;12.138;2023-09-18T07:17:29;100218.53;;;22.68;100.00
16481;BME280;44634;54.110;12.138;2023-09-18T07:19:58;100212.34;;;22.68;100.00
16481;BME280;44634;54.110;12.138;2023-09-18T07:22:28;100198.13;;;22.91;100.00
16481;BME280;44634;54.110;12.138;2023-09-18T07:24:56;100196.41;;;23.08;100.00
16481;BME280;44634;54.110;12.138;2023-09-18T07:27:24;100193.91;;;22.95;100.00
16481;BME280;44634;54.110;12.138;2023-09-18T07:29:55;100187.03;;;23.22;100.00
16481;BME280;44634;54.110;12.138;2023-09-18T07:32:23;100177.19;;;23.28;100.00
16481;BME280;44634;54.110;12.138;2023-09-18T07:35:03;100169.56;;;23.71;100.00
16481;BME280;44634;54.110;12.138;2023-09-18T07:37:33;100163.44;;;23.41;100.00
16481;BME280;44634;54.110;12.138;2023-09-18T07:40:01;100177.75;;;23.41;100.00
16481;BME280;44634;54.110;12.138;2023-09-18T07:42:30;100182.28;;;23.59;100.00
16481;BME280;44634;54.110;12.138;2023-09-18T07:44:57;100169.50;;;23.95;100.00
16481;BME280;44634;54.110;12.138;2023-09-18T07:47:25;100175.69;;;24.76;100.00
16481;BME280;44634;54.110;12.138;2023-09-18T07:49:53;100191.25;;;23.88;100.00
16481;BME280;44634;54.110;12.138;2023-09-18T07:52:22;100200.34;;;24.11;100.00
16481;BME280;44634;54.110;12.138;2023-09-18T07:54:51;100205.91;;;24.44;100.00
16481;BME280;44634;54.110;12.138;2023-09-18T07:57:19;100220.13;;;24.40;100.00
16481;BME280;44634;54.110;12.138;2023-09-18T07:59:49;100239.75;;;24.47;100.00
16481;BME280;44634;54.110;12.138;2023-09-18T08:02:17;100243.53;;;24.91;100.00
16481;BME280;44634;54.110;12.138;2023-09-18T08:04:45;100272.53;;;25.07;100.00
16481;BME280;44634;54.110;12.138;2023-09-18T08:07:13;100276.38;;;25.45;100.00
16481;BME280;44634;54.110;12.138;2023-09-18T08:09:41;100334.56;;;25.59;100.00
16481;BME280;44634;54.110;12.138;2023-09-18T08:12:11;100374.78;;;26.56;100.00
16481;BME280;44634;54.110;12.138;2023-09-18T08:14:39;100380.34;;;26.28;100.00
16481;BME280;44634;54.110;12.138;2023-09-18T08:17:06;100371.81;;;25.52;100.00
16481;BME280;44634;54.110;12.138;2023-09-18T08:19:36;100355.00;;;24.93;100.00
16481;BME280;44634;54.110;12.138;2023-09-18T08:22:05;100321.31;;;25.29;100.00
16481;BME280;44634;54.110;12.138;2023-09-18T08:24:33;100325.03;;;25.23;100.00
16481;BME280;44634;54.110;12.138;2023-09-18T08:27:01;100301.78;;;24.82;100.00
16481;BME280;44634;54.110;12.138;2023-09-18T08:29:31;100294.09;;;24.62;100.00
16481;BME280;44634;54.110;12.138;2023-09-18T08:31:59;100285.91;;;25.31;100.00
16481;BME280;44634;54.110;12.138;2023-09-18T08:34:27;100299.53;;;24.90;100.00
16481;BME280;44634;54.110;12.138;2023-09-18T08:36:55;100291.88;;;25.16;100.00
16481;BME280;44634;54.110;12.138;2023-09-18T08:39:22;100318.28;;;25.26;100.00
16481;BME280;44634;54.110;12.138;2023-09-18T08:41:50;100319.38;;;25.41;100.00
16481;BME280;44634;54.110;12.138;2023-09-18T08:44:21;100323.63;;;25.20;100.00
16481;BME280;44634;54.110;12.138;2023-09-18T08:46:51;100327.88;;;25.78;100.00
16481;BME280;44634;54.110;12.138;2023-09-18T08:49:19;100336.59;;;26.02;100.00
16481;BME280;44634;54.110;12.138;2023-09-18T08:51:48;100343.81;;;26.74;100.00
16481;BME280;44634;54.110;12.138;2023-09-18T08:54:16;100390.06;;;27.33;100.00
16481;BME280;44634;54.110;12.138;2023-09-18T08:56:49;100393.19;;;26.76;100.00
16481;BME280;44634;54.110;12.138;2023-09-18T08:59:17;100410.59;;;26.58;100.00
16481;BME280;44634;54.110;12.138;2023-09-18T09:01:47;100416.16;;;27.07;100.00
16481;BME280;44634;54.110;12.138;2023-09-18T09:04:17;100404.91;;;26.77;100.00
16481;BME280;44634;54.110;12.138;2023-09-18T09:06:45;100417.31;;;27.16;100.00
16481;BME280;44634;54.110;12.138;2023-09-18T09:09:13;100415.72;;;27.47;100.00
16481;BME280;44634;54.110;12.138;2023-09-18T09:11:47;100442.91;;;27.74;100.00
16481;BME280;44634;54.110;12.138;2023-09-18T09:14:16;100428.94;;;27.12;100.00
16481;BME280;44634;54.110;12.138;2023-09-18T09:16:49;100416.53;;;27.48;100.00
16481;BME280;44634;54.110;12.138;2023-09-18T09:19:26;100422.44;;;27.13;100.00
16481;BME280;44634;54.110;12.138;2023-09-18T09:21:57;100374.34;;;27.08;100.00
16481;BME280;44634;54.110;12.138;2023-09-18T09:24:36;100395.34;;;27.45;100.00
16481;BME280;44634;54.110;12.138;2023-09-18T09:27:05;100427.59;;;28.27;100.00
16481;BME280;44634;54.110;12.138;2023-09-18T09:29:34;100443.34;;;28.25;100.00
16481;BME280;44634;54.110;12.138;2023-09-18T09:32:14;100438.59;;;28.10;100.00
16481;BME280;44634;54.110;12.138;2023-09-18T09:34:45;100426.69;;;28.54;100.00
16481;BME280;44634;54.110;12.138;2023-09-18T09:37:14;100421.03;;;28.65;100.00
16481;BME280;44634;54.110;12.138;2023-09-18T09:39:48;100443.34;;;28.67;100.00
16481;BME280;44634;54.110;12.138;2023-09-18T09:42:17;100438.78;;;28.83;100.00
16481;BME280;44634;54.110;12.138;2023-09-18T09:45:00;100436.31;;;28.29;100.00
16481;BME280;44634;54.110;12.138;2023-09-18T09:47:31;100401.88;;;27.71;100.00
16481;BME280;44634;54.110;12.138;2023-09-18T09:50:17;100395.22;;;27.62;100.00
16481;BME280;44634;54.110;12.138;2023-09-18T09:52:52;100374.56;;;27.88;100.00
16481;BME280;44634;54.110;12.138;2023-09-18T09:55:32;100384.69;;;27.97;100.00
16481;BME280;44634;54.110;12.138;2023-09-18T09:58:04;100376.44;;;27.87;100.00
16481;BME280;44634;54.110;12.138;2023-09-18T10:00:34;100374.84;;;28.28;100.00
16481;BME280;44634;54.110;12.138;2023-09-18T10:03:12;100390.38;;;28.33;100.00
16481;BME280;44634;54.110;12.138;2023-09-18T10:05:57;100371.19;;;28.07;100.00
16481;BME280;44634;54.110;12.138;2023-09-18T10:08:27;100382.94;;;27.81;100.00
16481;BME280;44634;54.110;12.138;2023-09-18T10:11:01;100363.44;;;27.62;100.00
16481;BME280;44634;54.110;12.138;2023-09-18T10:13:36;100360.50;;;28.01;100.00
16481;BME280;44634;54.110;12.138;2023-09-18T10:16:08;100371.41;;;28.48;100.00
16481;BME280;44634;54.110;12.138;2023-09-18T10:18:42;100377.88;;;28.89;100.00
16481;BME280;44634;54.110;12.138;2023-09-18T10:21:19;100380.09;;;28.03;100.00
16481;BME280;44634;54.110;12.138;2023-09-18T10:23:57;100370.84;;;27.99;100.00
16481;BME280;44634;54.110;12.138;2023-09-18T10:26:29;100393.56;;;28.72;100.00
16481;BME280;44634;54.110;12.138;2023-09-18T10:29:01;100401.47;;;28.73;100.00
16481;BME280;44634;54.110;12.138;2023-09-18T10:31:32;100390.63;;;28.31;100.00
16481;BME280;44634;54.110;12.138;2023-09-18T10:34:03;100396.41;;;28.40;100.00
16481;BME280;44634;54.110;12.138;2023-09-18T10:36:35;100389.81;;;28.83;100.00
16481;BME280;44634;54.110;12.138;2023-09-18T10:39:20;100398.44;;;29.38;100.00
16481;BME280;44634;54.110;12.138;2023-09-18T10:41:52;100393.06;;;28.85;100.00
16481;BME280;44634;54.110;12.138;2023-09-18T10:44:35;100390.03;;;29.54;100.00
16481;BME280;44634;54.110;12.138;2023-09-18T10:47:07;100403.22;;;30.83;100.00
16481;BME280;44634;54.110;12.138;2023-09-18T10:49:57;100396.91;;;31.42;100.00
16481;BME280;44634;54.110;12.138;2023-09-18T10:52:34;100399.03;;;30.96;100.00
16481;BME280;44634;54.110;12.138;2023-09-18T10:55:23;100394.09;;;29.47;100.00
16481;BME280;44634;54.110;12.138;2023-09-18T10:57:57;100374.19;;;30.28;100.00
16481;BME280;44634;54.110;12.138;2023-09-18T11:00:31;100382.94;;;32.41;100.00
16481;BME280;44634;54.110;12.138;2023-09-18T11:03:11;100395.31;;;30.76;100.00
16481;BME280;44634;54.110;12.138;2023-09-18T11:05:43;100386.00;;;30.88;100.00
16481;BME280;44634;54.110;12.138;2023-09-18T11:11:25;100398.22;;;29.95;100.00
16481;BME280;44634;54.110;12.138;2023-09-18T11:14:02;100387.28;;;30.00;100.00
16481;BME280;44634;54.110;12.138;2023-09-18T11:16:40;100387.25;;;30.31;100.00
16481;BME280;44634;54.110;12.138;2023-09-18T11:19:29;100381.88;;;28.71;100.00
16481;BME280;44634;54.110;12.138;2023-09-18T11:22:12;100383.16;;;28.59;100.00
16481;BME280;44634;54.110;12.138;2023-09-18T11:24:46;100383.75;;;29.49;100.00
16481;BME280;44634;54.110;12.138;2023-09-18T11:27:16;100380.06;;;28.92;100.00
16481;BME280;44634;54.110;12.138;2023-09-18T11:29:52;100371.97;;;29.13;100.00
16481;BME280;44634;54.110;12.138;2023-09-18T11:32:37;100368.28;;;28.24;100.00
16481;BME280;44634;54.110;12.138;2023-09-18T11:35:11;100369.69;;;28.32;100.00
16481;BME280;44634;54.110;12.138;2023-09-18T11:37:40;100356.88;;;27.85;100.00
16481;BME280;44634;54.110;12.138;2023-09-18T11:45:51;100345.09;;;27.42;100.00
16481;BME280;44634;54.110;12.138;2023-09-18T11:48:22;100323.91;;;27.44;100.00
16481;BME280;44634;54.110;12.138;2023-09-18T11:50:57;100326.06;;;28.11;100.00
16481;BME280;44634;54.110;12.138;2023-09-18T11:53:26;100326.81;;;28.02;100.00
16481;BME280;44634;54.110;12.138;2023-09-18T11:55:56;100333.88;;;28.03;100.00
16481;BME280;44634;54.110;12.138;2023-09-18T11:58:27;100316.03;;;27.75;100.00
16481;BME280;44634;54.110;12.138;2023-09-18T12:01:00;100306.09;;;27.58;100.00
16481;BME280;44634;54.110;12.138;2023-09-18T12:03:40;100324.34;;;27.95;100.00
16481;BME280;44634;54.110;12.138;2023-09-18T12:06:09;100309.53;;;27.76;100.00
16481;BME280;44634;54.110;12.138;2023-09-18T12:08:40;100288.06;;;27.42;100.00
16481;BME280;44634;54.110;12.138;2023-09-18T12:11:20;100285.53;;;27.31;100.00
16481;BME280;44634;54.110;12.138;2023-09-18T12:13:50;100282.69;;;27.84;100.00
16481;BME280;44634;54.110;12.138;2023-09-18T12:16:21;100282.34;;;27.76;100.00
16481;BME280;44634;54.110;12.138;2023-09-18T12:18:49;100259.75;;;27.33;100.00
16481;BME280;44634;54.110;12.138;2023-09-18T12:21:18;100256.97;;;27.23;100.00
16481;BME280;44634;54.110;12.138;2023-09-18T12:23:52;100280.53;;;27.49;100.00
16481;BME280;44634;54.110;12.138;2023-09-18T12:26:32;100271.75;;;27.74;100.00
16481;BME280;44634;54.110;12.138;2023-09-18T12:29:01;100274.34;;;27.59;100.00
16481;BME280;44634;54.110;12.138;2023-09-18T12:31:33;100286.28;;;27.58;100.00
16481;BME280;44634;54.110;12.138;2023-09-18T12:34:01;100292.84;;;27.99;100.00
16481;BME280;44634;54.110;12.138;2023-09-18T12:36:29;100293.50;;;27.74;100.00
16481;BME280;44634;54.110;12.138;2023-09-18T12:39:00;100294.00;;;27.66;100.00
16481;BME280;44634;54.110;12.138;2023-09-18T12:41:28;100312.25;;;28.81;100.00
16481;BME280;44634;54.110;12.138;2023-09-18T12:44:02;100329.22;;;29.44;100.00
16481;BME280;44634;54.110;12.138;2023-09-18T12:46:32;100320.78;;;29.20;100.00
16481;BME280;44634;54.110;12.138;2023-09-18T12:49:19;100317.41;;;28.82;100.00
16481;BME280;44634;54.110;12.138;2023-09-18T12:51:55;100331.41;;;29.31;100.00
16481;BME280;44634;54.110;12.138;2023-09-18T12:54:36;100311.47;;;27.80;100.00